Rehoboth Beach, Delaware
Current Conditions -  °F | °C
As of 2:54 AM on Wednesday 22 Oct 2014 (Local Time) from KGED Reporting Station
Haze Haze  
Wind Chill: 55°   Ceiling: Unl
Heat Index: 55°   Visibility: 4mi
Dew Point: 53°   Wind: 3mph
Humidity: 93%   Direction: NA
Pressure: 29.81"   Gusts: NA
Location:  38.72°N, 75.08°W
Report Text: KGED 220654Z AUTO VRB03KT 4SM BR FEW006 13/12 A2981 RMK AO2 SLP094 T01280117
Loading
Personal Weather Stations






























Interactive Weather Map
Tropical Storm Tracking
New forecast layout! Learn more

10-Day Weather Forecast

Advertisements
Track Severe Weather on mobile